createdAt,value
2018-09-13T00:01:51.396Z,19.04
2018-09-13T00:04:19.637Z,18.87
2018-09-13T00:06:47.709Z,18.74
2018-09-13T00:09:15.831Z,18.75
2018-09-13T00:11:43.890Z,18.81
2018-09-13T00:14:12.036Z,18.57
2018-09-13T00:16:40.219Z,18.40
2018-09-13T00:19:08.411Z,18.39
2018-09-13T00:21:36.479Z,18.40
2018-09-13T00:24:04.558Z,18.27
2018-09-13T00:26:32.660Z,18.35
2018-09-13T00:29:00.840Z,18.37
2018-09-13T00:31:28.991Z,18.39
2018-09-13T00:33:57.190Z,18.29
2018-09-13T00:36:25.303Z,18.21
2018-09-13T00:38:53.411Z,18.24
2018-09-13T00:41:21.579Z,18.26
2018-09-13T00:43:49.656Z,18.32
2018-09-13T00:46:17.754Z,18.36
2018-09-13T00:48:45.839Z,18.43
2018-09-13T00:51:13.935Z,18.69
2018-09-13T00:53:42.039Z,18.83
2018-09-13T00:56:10.782Z,18.80
2018-09-13T00:58:39.039Z,18.76
2018-09-13T01:01:07.142Z,18.73
2018-09-13T01:03:35.241Z,18.84
2018-09-13T01:06:03.401Z,18.91
2018-09-13T01:08:31.470Z,19.05
2018-09-13T01:10:59.620Z,18.99
2018-09-13T01:13:28.295Z,18.75
2018-09-13T01:15:56.404Z,18.63
2018-09-13T01:18:24.551Z,18.63
2018-09-13T01:20:52.817Z,18.59
2018-09-13T01:23:20.912Z,18.64
2018-09-13T01:25:49.330Z,18.61
2018-09-13T01:28:17.408Z,18.51
2018-09-13T01:30:45.517Z,18.46
2018-09-13T01:33:13.650Z,18.36
2018-09-13T01:35:41.735Z,18.26
2018-09-13T01:38:09.837Z,18.26
2018-09-13T01:40:37.909Z,18.28
2018-09-13T01:43:06.397Z,18.28
2018-09-13T01:45:34.557Z,18.32
2018-09-13T01:48:02.640Z,18.50
2018-09-13T01:50:31.387Z,18.52
2018-09-13T01:52:59.512Z,18.55
2018-09-13T01:55:27.654Z,18.66
2018-09-13T01:57:55.734Z,18.83
2018-09-13T02:00:23.807Z,18.73
2018-09-13T02:02:51.863Z,18.70
2018-09-13T02:05:19.930Z,18.63
2018-09-13T02:07:48.005Z,18.53
2018-09-13T02:10:16.058Z,18.62
2018-09-13T02:12:44.144Z,18.62
2018-09-13T02:15:12.217Z,18.78
2018-09-13T02:17:40.357Z,18.72
2018-09-13T02:20:08.436Z,18.60
2018-09-13T02:22:36.507Z,18.56
2018-09-13T02:25:04.589Z,18.68
2018-09-13T02:27:32.661Z,18.61
2018-09-13T02:30:01.867Z,18.64
2018-09-13T02:32:29.975Z,18.68
2018-09-13T02:34:58.032Z,18.72
2018-09-13T02:37:26.133Z,18.87
2018-09-13T02:39:54.239Z,18.79
2018-09-13T02:42:22.325Z,18.76
2018-09-13T02:44:50.402Z,18.82
2018-09-13T02:47:18.494Z,18.78
2018-09-13T02:49:46.567Z,18.70
2018-09-13T02:52:14.671Z,18.73
2018-09-13T02:54:42.868Z,18.74
2018-09-13T02:57:10.948Z,18.68
2018-09-13T02:59:39.034Z,18.53
2018-09-13T03:02:07.131Z,18.45
2018-09-13T03:04:35.200Z,18.42
2018-09-13T03:07:03.270Z,18.38
2018-09-13T03:09:31.339Z,18.29
2018-09-13T03:11:59.412Z,18.21
2018-09-13T03:14:27.488Z,18.33
2018-09-13T03:16:55.687Z,18.30
2018-09-13T03:19:23.889Z,18.19
2018-09-13T03:21:51.997Z,18.27
2018-09-13T03:24:20.255Z,18.27
2018-09-13T03:26:48.509Z,18.24
2018-09-13T03:29:16.613Z,18.36
2018-09-13T03:31:45.478Z,18.44
2018-09-13T03:34:13.571Z,18.42
2018-09-13T03:36:41.650Z,18.29
2018-09-13T03:39:11.045Z,18.31
2018-09-13T03:41:39.187Z,18.40
2018-09-13T03:44:07.564Z,18.25
2018-09-13T03:46:36.064Z,18.28
2018-09-13T03:49:04.260Z,18.07
2018-09-13T03:51:32.363Z,17.94
2018-09-13T03:54:00.486Z,18.22
2018-09-13T03:56:28.590Z,18.25
2018-09-13T03:58:57.234Z,18.25
2018-09-13T04:01:25.318Z,18.25
2018-09-13T04:03:53.414Z,18.08
2018-09-13T04:06:21.511Z,18.05
2018-09-13T04:08:49.982Z,18.04
2018-09-13T04:11:18.062Z,18.04
2018-09-13T04:13:46.138Z,17.93
2018-09-13T04:16:14.244Z,17.86
2018-09-13T04:18:42.999Z,17.89
2018-09-13T04:21:13.028Z,17.85
2018-09-13T04:38:56.247Z,17.37
2018-09-13T04:50:32.881Z,17.19
2018-09-13T04:53:01.054Z,17.14
2018-09-13T04:55:29.274Z,17.31
2018-09-13T04:58:04.081Z,17.33
2018-09-13T05:00:32.286Z,17.21
2018-09-13T05:03:00.476Z,17.16
2018-09-13T05:05:28.692Z,17.15
2018-09-13T05:07:56.854Z,17.32
2018-09-13T05:10:25.001Z,17.27
2018-09-13T05:12:53.289Z,17.38
2018-09-13T05:15:21.397Z,17.49
2018-09-13T05:17:49.865Z,17.34
2018-09-13T05:20:18.046Z,17.26
2018-09-13T05:22:46.204Z,17.26
2018-09-13T05:25:14.397Z,17.49
2018-09-13T05:27:42.560Z,17.59
2018-09-13T05:30:10.706Z,17.34
2018-09-13T05:32:38.880Z,17.20
2018-09-13T05:35:08.068Z,17.20
2018-09-13T05:37:36.243Z,17.24
2018-09-13T05:40:04.587Z,17.17
2018-09-13T05:42:32.805Z,17.20
2018-09-13T05:45:00.981Z,17.48
2018-09-13T05:47:29.213Z,17.67
2018-09-13T05:49:57.355Z,17.75
2018-09-13T05:52:25.525Z,17.90
2018-09-13T05:54:53.683Z,18.03
2018-09-13T05:57:22.135Z,17.91
2018-09-13T05:59:50.317Z,18.02
2018-09-13T06:02:18.407Z,18.06
2018-09-13T06:04:46.551Z,18.18
2018-09-13T06:07:14.952Z,18.37
2018-09-13T06:09:43.071Z,18.31
2018-09-13T06:12:11.184Z,18.25
2018-09-13T06:14:39.304Z,18.10
2018-09-13T06:17:07.403Z,18.12
2018-09-13T06:19:35.528Z,18.22
2018-09-13T06:22:03.632Z,18.38
2018-09-13T06:24:31.747Z,18.38
2018-09-13T06:26:59.852Z,18.26
2018-09-13T06:29:27.981Z,18.30
2018-09-13T06:31:56.050Z,18.28
2018-09-13T06:34:24.173Z,18.47
2018-09-13T06:36:52.332Z,18.62
2018-09-13T06:39:20.439Z,18.78
2018-09-13T06:41:48.584Z,19.09
2018-09-13T06:44:16.690Z,19.23
2018-09-13T06:46:44.803Z,19.10
2018-09-13T06:49:12.931Z,19.30
2018-09-13T06:51:41.058Z,19.64
2018-09-13T06:54:09.268Z,19.88
2018-09-13T06:56:37.403Z,20.05
2018-09-13T06:59:05.734Z,19.94
2018-09-13T07:01:33.859Z,19.75
2018-09-13T07:04:01.948Z,19.65
2018-09-13T07:06:30.066Z,19.20
2018-09-13T07:08:58.230Z,19.33
2018-09-13T07:11:26.384Z,19.29
2018-09-13T07:13:54.498Z,19.03
2018-09-13T07:16:22.606Z,18.98
2018-09-13T07:18:50.736Z,19.08
2018-09-13T07:21:18.863Z,19.17
2018-09-13T07:23:46.992Z,19.38
2018-09-13T07:26:15.099Z,19.56
2018-09-13T07:28:43.227Z,19.67
2018-09-13T07:31:12.012Z,19.97
2018-09-13T07:33:40.124Z,20.17
2018-09-13T07:36:08.243Z,20.23
2018-09-13T07:38:36.372Z,20.42
2018-09-13T07:41:04.523Z,20.33
2018-09-13T07:43:32.647Z,20.34
2018-09-13T07:46:01.024Z,20.37
2018-09-13T07:48:29.195Z,20.24
2018-09-13T07:50:57.319Z,20.01
2018-09-13T07:53:25.529Z,20.11
2018-09-13T07:55:53.641Z,20.19
2018-09-13T07:58:21.752Z,20.39
2018-09-13T08:00:49.853Z,20.38
2018-09-13T08:03:17.935Z,20.24
2018-09-13T08:05:46.068Z,20.14
2018-09-13T08:08:14.182Z,19.74
2018-09-13T08:10:42.269Z,19.64
2018-09-13T08:13:10.467Z,19.78
2018-09-13T08:15:38.598Z,19.96
2018-09-13T08:18:06.717Z,20.01
2018-09-13T08:20:34.850Z,20.21
2018-09-13T08:23:02.960Z,20.53
2018-09-13T08:25:31.079Z,20.83
2018-09-13T08:27:59.170Z,20.88
2018-09-13T08:30:27.292Z,20.91
2018-09-13T08:32:55.408Z,20.87
2018-09-13T08:35:23.529Z,20.77
2018-09-13T08:37:51.652Z,20.59
2018-09-13T08:40:20.074Z,20.71
2018-09-13T08:42:48.130Z,20.28
2018-09-13T08:45:16.259Z,20.47
2018-09-13T08:47:45.022Z,20.67
2018-09-13T08:50:13.122Z,20.86
2018-09-13T08:52:41.270Z,21.00
2018-09-13T08:55:10.162Z,20.95
2018-09-13T08:57:38.292Z,20.92
2018-09-13T09:00:09.776Z,20.95
2018-09-13T09:02:37.903Z,21.02
2018-09-13T09:05:06.108Z,21.17
2018-09-13T09:07:34.207Z,21.19
2018-09-13T09:10:02.329Z,21.06
2018-09-13T09:12:30.429Z,20.54
2018-09-13T09:14:58.634Z,20.75
2018-09-13T09:17:26.752Z,20.98
2018-09-13T09:19:54.861Z,21.16
2018-09-13T09:22:22.950Z,21.14
2018-09-13T09:24:51.063Z,20.91
2018-09-13T09:27:19.200Z,21.03
2018-09-13T09:29:47.390Z,21.14
2018-09-13T09:32:15.439Z,21.02
2018-09-13T09:34:43.566Z,21.04
2018-09-13T09:37:11.663Z,21.40
2018-09-13T09:39:39.755Z,21.46
2018-09-13T09:42:08.681Z,21.53
2018-09-13T09:44:36.750Z,21.49
2018-09-13T09:47:04.999Z,21.30
2018-09-13T09:49:33.099Z,21.52
2018-09-13T09:52:01.214Z,21.66
2018-09-13T09:54:29.518Z,21.89
2018-09-13T09:56:57.597Z,21.87
2018-09-13T09:59:25.674Z,21.99
2018-09-13T10:01:59.240Z,21.93
2018-09-13T10:04:27.365Z,21.47
2018-09-13T10:06:55.819Z,21.27
2018-09-13T10:09:23.902Z,21.53
2018-09-13T10:11:52.018Z,21.75
2018-09-13T10:14:20.126Z,21.94
2018-09-13T10:16:54.031Z,21.93
2018-09-13T10:19:27.548Z,22.08
2018-09-13T10:22:01.264Z,22.05
2018-09-13T10:24:34.588Z,21.89
2018-09-13T10:29:14.581Z,22.02
2018-09-13T10:31:48.024Z,22.01
2018-09-13T10:36:27.377Z,22.05
2018-09-13T10:39:00.816Z,22.47
2018-09-13T10:41:34.325Z,22.67
2018-09-13T10:44:07.773Z,22.01
2018-09-13T10:46:35.905Z,21.90
2018-09-13T10:49:09.303Z,21.87
2018-09-13T10:51:42.693Z,21.86
2018-09-13T10:54:15.564Z,21.74
2018-09-13T10:56:43.796Z,21.89
2018-09-13T10:59:11.983Z,22.18
2018-09-13T11:01:40.073Z,22.32
2018-09-13T11:04:08.306Z,22.62
2018-09-13T11:06:36.336Z,22.49
2018-09-13T11:09:05.276Z,22.32
2018-09-13T11:11:33.375Z,22.26
2018-09-13T11:14:06.771Z,22.55
2018-09-13T11:16:34.909Z,22.53
2018-09-13T11:19:03.029Z,22.52
2018-09-13T11:21:31.160Z,22.78
2018-09-13T11:23:59.343Z,23.02
2018-09-13T11:26:27.450Z,23.29
2018-09-13T11:28:55.559Z,23.55
2018-09-13T11:31:23.650Z,23.85
2018-09-13T11:33:52.391Z,23.89
2018-09-13T11:36:20.500Z,23.78
2018-09-13T11:38:48.608Z,23.69
2018-09-13T11:41:16.704Z,23.81
2018-09-13T11:43:44.820Z,23.83
2018-09-13T11:46:12.903Z,24.05
2018-09-13T11:48:40.990Z,24.09
2018-09-13T11:51:09.099Z,24.19
2018-09-13T11:53:37.188Z,24.25
2018-09-13T11:56:05.264Z,24.46
2018-09-13T11:58:33.358Z,24.44
2018-09-13T12:01:01.485Z,24.32
2018-09-13T12:03:29.578Z,24.58
2018-09-13T12:05:57.629Z,24.06
2018-09-13T12:08:25.727Z,24.03
2018-09-13T12:13:28.531Z,24.27
2018-09-13T12:15:56.627Z,24.45
2018-09-13T12:18:24.759Z,24.53
2018-09-13T12:20:52.808Z,24.05
2018-09-13T12:23:20.939Z,24.42
2018-09-13T12:25:49.007Z,24.50
2018-09-13T12:28:17.120Z,24.07
2018-09-13T12:30:45.236Z,23.87
2018-09-13T12:33:13.311Z,23.72
2018-09-13T12:35:41.429Z,23.53
2018-09-13T12:38:10.074Z,23.22
2018-09-13T12:40:38.170Z,23.40
2018-09-13T12:43:06.276Z,23.86
2018-09-13T12:45:34.373Z,24.09
2018-09-13T12:48:02.461Z,23.80
2018-09-13T12:50:30.592Z,24.01
2018-09-13T12:52:58.688Z,23.75
2018-09-13T12:55:32.896Z,24.24
2018-09-13T12:58:01.452Z,24.17
2018-09-13T13:00:29.658Z,23.74
2018-09-13T13:02:57.636Z,24.06
2018-09-13T13:05:26.002Z,23.84
2018-09-13T13:07:54.088Z,23.96
2018-09-13T13:10:22.160Z,24.24
2018-09-13T13:12:50.532Z,24.15
2018-09-13T13:15:18.635Z,24.19
2018-09-13T13:17:46.771Z,24.18
2018-09-13T13:20:14.861Z,24.15
2018-09-13T13:22:42.958Z,23.97
2018-09-13T13:25:11.043Z,23.46
2018-09-13T13:27:39.281Z,23.28
2018-09-13T13:30:07.253Z,23.37
2018-09-13T13:32:35.361Z,23.59
2018-09-13T13:35:03.460Z,23.80
2018-09-13T13:37:31.568Z,23.58
2018-09-13T13:39:59.651Z,23.33
2018-09-13T13:42:27.744Z,23.16
2018-09-13T13:44:55.828Z,23.02
2018-09-13T13:47:23.959Z,22.86
2018-09-13T13:49:52.052Z,22.91
2018-09-13T13:52:20.127Z,22.99
2018-09-13T13:54:48.202Z,22.92
2018-09-13T13:57:16.314Z,22.86
2018-09-13T13:59:44.407Z,22.83
2018-09-13T14:02:12.493Z,22.71
2018-09-13T14:04:40.559Z,22.70
2018-09-13T14:07:08.668Z,22.41
2018-09-13T14:09:36.782Z,22.35
2018-09-13T14:12:04.862Z,21.92
2018-09-13T14:14:32.967Z,21.90
2018-09-13T14:17:01.216Z,21.73
2018-09-13T14:19:29.352Z,21.60
2018-09-13T14:21:58.051Z,21.28
2018-09-13T14:24:26.136Z,21.03
2018-09-13T14:26:54.215Z,20.82
2018-09-13T14:29:22.290Z,20.69
2018-09-13T14:31:50.383Z,20.44
2018-09-13T14:34:18.452Z,20.19
2018-09-13T14:36:46.549Z,19.73
2018-09-13T14:39:14.765Z,19.69
2018-09-13T14:41:42.924Z,19.63
2018-09-13T14:44:11.059Z,19.61
2018-09-13T14:46:39.164Z,19.57
2018-09-13T14:49:07.361Z,19.34
2018-09-13T14:51:35.489Z,19.24
2018-09-13T14:54:03.639Z,19.19
2018-09-13T14:56:32.155Z,18.95
2018-09-13T14:59:00.218Z,18.96
2018-09-13T15:01:29.184Z,18.84
2018-09-13T15:03:57.254Z,18.89
2018-09-13T15:06:25.355Z,18.94
2018-09-13T15:09:00.318Z,18.78
2018-09-13T15:11:29.452Z,18.75
2018-09-13T15:38:21.993Z,18.19
2018-09-13T15:40:50.189Z,18.13
2018-09-13T15:43:18.354Z,18.12
2018-09-13T15:45:47.752Z,17.89
2018-09-13T15:48:15.903Z,17.88
2018-09-13T15:50:44.069Z,17.92
2018-09-13T15:53:12.248Z,18.01
2018-09-13T15:55:40.374Z,18.17
2018-09-13T15:58:08.548Z,18.14
2018-09-13T16:00:36.649Z,18.26
2018-09-13T16:03:05.083Z,18.21
2018-09-13T16:08:35.516Z,18.22
2018-09-13T16:11:03.657Z,18.14
2018-09-13T16:13:31.798Z,18.17
2018-09-13T16:15:59.937Z,18.02
2018-09-13T16:18:28.109Z,18.05
2018-09-13T16:20:56.353Z,18.04
2018-09-13T16:23:24.476Z,17.97
2018-09-13T16:25:52.651Z,17.85
2018-09-13T16:28:20.787Z,17.85
2018-09-13T16:30:48.925Z,17.85
2018-09-13T16:33:17.086Z,17.83
2018-09-13T16:35:47.566Z,17.87
2018-09-13T16:38:20.942Z,17.97
2018-09-13T16:40:54.379Z,17.86
2018-09-13T16:43:27.836Z,17.95
2018-09-13T16:45:56.381Z,18.06
2018-09-13T16:48:28.662Z,18.05
2018-09-13T16:50:56.783Z,18.07
2018-09-13T16:53:24.887Z,17.93
2018-09-13T16:55:53.234Z,17.97
2018-09-13T17:01:25.116Z,18.10
2018-09-13T17:03:53.654Z,18.12
2018-09-13T17:06:22.570Z,18.10
2018-09-13T17:08:50.712Z,18.18
2018-09-13T17:11:18.854Z,18.12
2018-09-13T17:13:47.260Z,18.22
2018-09-13T17:16:15.359Z,18.27
2018-09-13T17:18:43.700Z,18.29
2018-09-13T17:21:12.233Z,18.28
2018-09-13T17:23:40.575Z,18.26
2018-09-13T17:26:09.641Z,18.28
2018-09-13T17:28:37.754Z,18.14
2018-09-13T17:31:05.981Z,18.10
2018-09-13T17:33:34.079Z,18.11
2018-09-13T17:36:02.184Z,18.03
2018-09-13T17:38:30.313Z,18.00
2018-09-13T17:40:58.501Z,17.99
2018-09-13T17:43:26.623Z,17.77
2018-09-13T17:45:54.754Z,17.57
2018-09-13T17:48:22.882Z,17.57
2018-09-13T17:50:50.988Z,17.68
2018-09-13T17:53:19.100Z,17.74
2018-09-13T17:55:47.275Z,17.73
2018-09-13T17:58:15.389Z,17.74
2018-09-13T18:00:43.487Z,17.79
2018-09-13T18:03:11.686Z,17.85
2018-09-13T18:05:39.799Z,17.91
2018-09-13T18:08:08.553Z,17.94
2018-09-13T18:10:37.167Z,17.98
2018-09-13T18:13:05.439Z,17.99
2018-09-13T18:15:33.604Z,17.95
2018-09-13T18:18:01.689Z,17.90
2018-09-13T18:20:29.831Z,17.69
2018-09-13T18:22:57.963Z,17.58
2018-09-13T18:25:26.065Z,17.70
2018-09-13T18:27:54.216Z,17.75
2018-09-13T18:30:22.385Z,17.73
2018-09-13T18:32:50.679Z,17.73
2018-09-13T18:35:18.807Z,17.72
2018-09-13T18:37:47.256Z,17.68
2018-09-13T18:40:15.397Z,17.76
2018-09-13T18:42:43.519Z,17.78
2018-09-13T18:45:11.681Z,17.69
2018-09-13T18:47:39.788Z,17.73
2018-09-13T18:50:08.167Z,17.77
2018-09-13T18:52:36.608Z,17.63
2018-09-13T18:55:04.732Z,17.76
2018-09-13T18:57:33.398Z,17.76
2018-09-13T19:00:01.572Z,17.64
2018-09-13T19:02:29.702Z,17.43
2018-09-13T19:04:57.890Z,17.43
2018-09-13T19:07:26.030Z,17.53
2018-09-13T19:09:54.259Z,17.35
2018-09-13T19:15:25.576Z,17.34
2018-09-13T19:17:53.723Z,17.31
2018-09-13T19:20:22.343Z,17.35
2018-09-13T19:22:50.479Z,17.43
2018-09-13T19:25:18.643Z,17.39
2018-09-13T19:27:46.784Z,17.49
2018-09-13T19:30:14.903Z,17.59
2018-09-13T19:32:43.344Z,17.69
2018-09-13T19:35:11.436Z,17.75
2018-09-13T19:37:39.554Z,17.58
2018-09-13T19:40:08.177Z,17.43
2018-09-13T19:42:36.299Z,17.39
2018-09-13T19:45:04.503Z,17.27
2018-09-13T19:47:32.673Z,17.12
2018-09-13T19:50:00.790Z,17.21
2018-09-13T19:52:28.886Z,17.11
2018-09-13T19:54:56.999Z,17.09
2018-09-13T19:57:25.912Z,17.02
2018-09-13T19:59:54.030Z,16.98
2018-09-13T20:02:22.466Z,17.03
2018-09-13T20:04:50.612Z,17.10
2018-09-13T20:07:18.699Z,17.13
2018-09-13T20:09:46.803Z,17.00
2018-09-13T20:12:14.920Z,17.01
2018-09-13T20:14:43.215Z,16.92
2018-09-13T20:17:11.315Z,16.90
2018-09-13T20:19:39.672Z,17.00
2018-09-13T20:22:09.255Z,16.89
2018-09-13T20:24:36.225Z,16.81
2018-09-13T20:27:04.530Z,16.77
2018-09-13T20:29:32.613Z,16.95
2018-09-13T20:32:00.744Z,16.98
2018-09-13T20:34:29.056Z,17.01
2018-09-13T20:36:57.118Z,17.01
2018-09-13T20:39:25.214Z,16.98
2018-09-13T20:41:53.303Z,16.85
2018-09-13T20:44:21.412Z,16.90
2018-09-13T20:46:49.824Z,17.04
2018-09-13T20:49:20.211Z,17.01
2018-09-13T20:51:48.290Z,16.86
2018-09-13T20:54:16.369Z,16.73
2018-09-13T20:56:44.438Z,16.90
2018-09-13T21:02:15.396Z,16.79
2018-09-13T21:04:43.529Z,16.73
2018-09-13T21:07:11.719Z,16.73
2018-09-13T21:09:39.843Z,16.66
2018-09-13T21:12:08.028Z,16.49
2018-09-13T21:14:36.171Z,16.49
2018-09-13T21:17:04.339Z,16.47
2018-09-13T21:19:32.510Z,16.48
2018-09-13T21:22:00.590Z,16.45
2018-09-13T21:24:28.695Z,16.40
2018-09-13T21:26:56.780Z,16.38
2018-09-13T21:29:24.880Z,16.25
2018-09-13T21:31:52.992Z,16.29
2018-09-13T21:34:21.136Z,16.20
2018-09-13T21:36:49.218Z,16.07
2018-09-13T21:39:17.312Z,16.07
2018-09-13T21:41:45.422Z,16.01
2018-09-13T21:44:13.592Z,15.96
2018-09-13T21:46:41.651Z,15.93
2018-09-13T21:52:12.717Z,15.88
2018-09-13T21:54:40.916Z,15.96
